Flight Track Log - Related Links

Times and Time Zones

All times are in EDT time to prevent confusion due to time zone crossing. See the CTL311 flight status page for this flight to view local times or setup timezone preferences in your user account.

Time Position Orientation Groundspeed Altitude Reporting Facility
EDT Latitude Longitude Course Direction KTS MPH feet Rate Location/Type
Thu 10:44:32 AM 41.5347 -93.6589 229° Southwest 70 81 1,400  Level Minneapolis Center
Thu 10:45:03 AM 41.5269 -93.6708 229° Southwest 88 101 2,000 989 Climbing Minneapolis Center
Thu 10:46:03 AM 41.5097 -93.7028 234° Southwest 99 114 2,900 843 Climbing Minneapolis Center
Thu 10:47:04 AM 41.4769 -93.7142 195° South 128 147 3,700 793 Climbing Minneapolis Center
Thu 10:48:04 AM 41.4336 -93.7267 192° South 142 163 4,500 744 Climbing Minneapolis Center
Thu 10:49:05 AM 41.3947 -93.7386 193° South 145 167 5,200 689 Climbing Minneapolis Center
Thu 10:50:06 AM 41.3556 -93.7503 193° South 146 168 5,900 446 Climbing Minneapolis Center
Thu 10:51:06 AM 41.3147 -93.7681 198° South 154 177 6,100 99 Climbing Minneapolis Center
Thu 10:52:07 AM 41.2656 -93.7864 196° South 175 201 6,100  Level Minneapolis Center
Thu 10:53:14 AM 41.2103 -93.8106 198° South 179 206 6,100 -47 Level Minneapolis Center
Thu 10:54:15 AM 41.1631 -93.8286 196° South 179 206 6,000  Descending Minneapolis Center
Thu 10:55:09 AM 41.1225 -93.8489 201° Southwest 175 201 6,100 44 Climbing Minneapolis Center
Thu 10:56:31 AM 41.0558 -93.8811 200° South 174 200 6,100  Level Minneapolis Center
Thu 10:57:33 AM 41.0056 -93.9022 198° South 176 203 6,100  Level Minneapolis Center
Thu 10:58:35 AM 40.9589 -93.9233 199° South 177 204 6,100  Level Minneapolis Center
Thu 10:59:37 AM 40.9097 -93.9456 199° South 174 200 6,100  Level Minneapolis Center
Thu 11:00:39 AM 40.8658 -93.9619 196° South 178 205 6,100  Level Minneapolis Center
Thu 11:01:41 AM 40.8183 -93.9797 196° South 179 206 6,100 -48 Level Minneapolis Center
Thu 11:02:43 AM 40.7708 -93.9956 194° South 178 205 6,000  Descending Minneapolis Center
Thu 11:03:45 AM 40.7114 -94.0167 195° South 183 211 6,100 48 Climbing Minneapolis Center
Thu 11:04:47 AM 40.6642 -94.0344 196° South 181 208 6,100  Level Minneapolis Center
Thu 11:05:49 AM 40.6161 -94.0525 196° South 180 207 6,100  Level Minneapolis Center
Thu 11:06:51 AM 40.5683 -94.0661 192° South 179 206 6,100  Level Minneapolis Center
Thu 11:07:53 AM 40.5225 -94.0839 196° South 176 203 6,100 -48 Level Minneapolis Center
Thu 11:08:55 AM 40.4653 -94.1050 196° South 178 205 6,000 -48 Descending Minneapolis Center
Thu 11:09:58 AM 40.4178 -94.1225 196° South 178 205 6,000  Level Minneapolis Center
Thu 11:11:00 AM 40.3708 -94.1369 193° South 177 204 6,000  Level Minneapolis Center
Thu 11:12:02 AM 40.3250 -94.1539 196° South 174 200 6,000  Level Minneapolis Center
Thu 11:13:04 AM 40.2675 -94.1689 191° South 175 201 6,000  Level Minneapolis Center
Thu 11:14:06 AM 40.2203 -94.1850 195° South 178 205 6,000  Level Minneapolis Center
Thu 11:15:08 AM 40.1769 -94.2025 197° South 169 194 6,000 48 Level Minneapolis Center
Thu 11:16:10 AM 40.1311 -94.2208 197° South 170 196 6,100  Climbing Minneapolis Center
Thu 11:17:12 AM 40.0844 -94.2361 194° South 172 198 6,000 -48 Descending Minneapolis Center
Thu 11:18:14 AM 40.0283 -94.2556 195° South 174 200 6,000 -48 Level Minneapolis Center
Thu 11:19:16 AM 39.9819 -94.2717 195° South 174 200 5,900  Descending Minneapolis Center
Thu 11:20:30 AM 39.9369 -94.2889 196° South 173 199 6,000 88 Climbing Minneapolis Center
Thu 11:21:33 AM 39.8814 -94.3078 195° South 172 198 6,100 45 Climbing Minneapolis Center
Thu 11:22:42 AM 39.8242 -94.3306 197° South 175 201 6,100 -92 Level Kansas City Center
Thu 11:23:44 AM 39.7761 -94.3422 191° South 180 207 5,900 -336 Descending Kansas City Center
Thu 11:24:47 AM 39.7192 -94.3619 195° South 189 217 5,400 -384 Descending Kansas City Center
Thu 11:25:49 AM 39.6703 -94.3806 196° South 190 219 5,100 -339 Descending Kansas City Center
Thu 11:26:51 AM 39.6150 -94.4092 202° Southwest 190 219 4,700 -339 Descending Kansas City Center
Thu 11:27:53 AM 39.5678 -94.4322 201° Southwest 190 219 4,400 -290 Descending Kansas City Center
Thu 11:28:55 AM 39.5144 -94.4556 199° South 183 211 4,100 -242 Descending Kansas City Center
Thu 11:29:57 AM 39.4686 -94.4747 198° South 180 207 3,900 -484 Descending Kansas City Center
Thu 11:30:59 AM 39.4156 -94.5019 202° Southwest 182 209 3,100 -435 Descending Kansas City Center
Thu 11:32:01 AM 39.3733 -94.5189 197° South 168 193 3,000 -48 Descending Kansas City Center
Thu 11:33:03 AM 39.3358 -94.5314 194° South 148 170 3,000  Level Kansas City Center
Thu 11:34:05 AM 39.2922 -94.5431 192° South 143 165 3,000 48 Level Kansas City Center
Thu 11:35:07 AM 39.2550 -94.5519 190° South 142 163 3,100 -339 Climbing Kansas City Center
Thu 11:36:09 AM 39.2133 -94.5669 196° South 139 160 2,300 -629 Descending Kansas City Center
Thu 11:37:11 AM 39.1808 -94.5767 193° South 124 143 1,800 -532 Descending Kansas City Center
Thu 11:38:13 AM 39.1481 -94.5872 194° South 112 129 1,200 -387 Descending Kansas City Center
Thu 11:39:15 AM 39.1192 -94.5939 190° South 112 129 1,000 -194 Descending Kansas City Center

Login

Don't have an account? Register now (free) for customized features, flight alerts, and more!